sensor_id;sensor_type;location;lat;lon;timestamp;pressure;altitude;pressure_sealevel;temperature;humidity
79465;BME280;68932;47.410;8.232;2023-05-19T00:00:06;97081.60;;;11.88;61.22
79465;BME280;68932;47.410;8.232;2023-05-19T00:02:36;97085.48;;;11.88;61.14
79465;BME280;68932;47.410;8.232;2023-05-19T00:05:06;97084.55;;;11.86;60.99
79465;BME280;68932;47.410;8.232;2023-05-19T00:07:37;97084.29;;;11.85;61.17
79465;BME280;68932;47.410;8.232;2023-05-19T00:10:08;97082.58;;;11.84;61.15
79465;BME280;68932;47.410;8.232;2023-05-19T00:12:38;97078.98;;;11.83;61.32
79465;BME280;68932;47.410;8.232;2023-05-19T00:15:09;97073.02;;;11.83;61.62
79465;BME280;68932;47.410;8.232;2023-05-19T00:17:37;97071.02;;;11.81;61.92
79465;BME280;68932;47.410;8.232;2023-05-19T00:20:08;97065.69;;;11.79;61.67
79465;BME280;68932;47.410;8.232;2023-05-19T00:22:36;97064.77;;;11.80;61.75
79465;BME280;68932;47.410;8.232;2023-05-19T00:25:05;97065.23;;;11.81;62.00
79465;BME280;68932;47.410;8.232;2023-05-19T00:27:34;97067.38;;;11.83;62.35
79465;BME280;68932;47.410;8.232;2023-05-19T00:30:02;97065.45;;;11.83;62.26
79465;BME280;68932;47.410;8.232;2023-05-19T00:32:31;97062.39;;;11.84;62.10
79465;BME280;68932;47.410;8.232;2023-05-19T00:34:59;97063.74;;;11.85;62.30
79465;BME280;68932;47.410;8.232;2023-05-19T00:37:28;97058.31;;;11.84;62.00
79465;BME280;68932;47.410;8.232;2023-05-19T00:39:56;97057.08;;;11.85;62.02
79465;BME280;68932;47.410;8.232;2023-05-19T00:42:24;97055.00;;;11.84;62.38
79465;BME280;68932;47.410;8.232;2023-05-19T00:44:53;97057.15;;;11.83;62.64
79465;BME280;68932;47.410;8.232;2023-05-19T00:47:22;97052.58;;;11.81;62.45
79465;BME280;68932;47.410;8.232;2023-05-19T00:49:50;97052.94;;;11.78;63.02
79465;BME280;68932;47.410;8.232;2023-05-19T00:52:18;97052.73;;;11.76;63.35
79465;BME280;68932;47.410;8.232;2023-05-19T00:54:47;97047.19;;;11.73;63.65
79465;BME280;68932;47.410;8.232;2023-05-19T00:57:16;97045.02;;;11.69;63.27
79465;BME280;68932;47.410;8.232;2023-05-19T00:59:44;97042.65;;;11.65;63.31
79465;BME280;68932;47.410;8.232;2023-05-19T01:02:12;97038.86;;;11.61;63.19
79465;BME280;68932;47.410;8.232;2023-05-19T01:04:41;97046.10;;;11.57;63.69
79465;BME280;68932;47.410;8.232;2023-05-19T01:07:10;97047.73;;;11.54;63.63
79465;BME280;68932;47.410;8.232;2023-05-19T01:09:38;97044.00;;;11.52;63.46
79465;BME280;68932;47.410;8.232;2023-05-19T01:12:08;97042.60;;;11.52;63.76
79465;BME280;68932;47.410;8.232;2023-05-19T01:14:36;97042.82;;;11.52;63.90
79465;BME280;68932;47.410;8.232;2023-05-19T01:17:12;97048.38;;;11.50;64.07
79465;BME280;68932;47.410;8.232;2023-05-19T01:19:55;97041.57;;;11.47;64.34
79465;BME280;68932;47.410;8.232;2023-05-19T01:22:43;97044.48;;;11.45;64.47
79465;BME280;68932;47.410;8.232;2023-05-19T01:28:33;97045.19;;;11.43;64.92
79465;BME280;68932;47.410;8.232;2023-05-19T01:31:10;97044.02;;;11.40;64.83
79465;BME280;68932;47.410;8.232;2023-05-19T01:33:40;97048.05;;;11.37;65.25
79465;BME280;68932;47.410;8.232;2023-05-19T01:36:11;97047.05;;;11.34;65.52
79465;BME280;68932;47.410;8.232;2023-05-19T01:38:43;97042.40;;;11.32;65.60
79465;BME280;68932;47.410;8.232;2023-05-19T01:41:13;97041.65;;;11.31;65.66
79465;BME280;68932;47.410;8.232;2023-05-19T01:43:43;97042.58;;;11.30;65.95
79465;BME280;68932;47.410;8.232;2023-05-19T01:46:12;97038.91;;;11.27;65.81
79465;BME280;68932;47.410;8.232;2023-05-19T01:48:41;97043.81;;;11.27;65.76
79465;BME280;68932;47.410;8.232;2023-05-19T01:51:09;97042.58;;;11.27;65.72
79465;BME280;68932;47.410;8.232;2023-05-19T01:53:38;97038.77;;;11.27;65.61
79465;BME280;68932;47.410;8.232;2023-05-19T01:56:08;97039.62;;;11.27;65.62
79465;BME280;68932;47.410;8.232;2023-05-19T01:58:44;97036.19;;;11.26;65.84
79465;BME280;68932;47.410;8.232;2023-05-19T02:01:19;97035.06;;;11.24;66.18
79465;BME280;68932;47.410;8.232;2023-05-19T02:04:03;97032.24;;;11.22;66.11
79465;BME280;68932;47.410;8.232;2023-05-19T02:06:41;97033.14;;;11.18;66.00
79465;BME280;68932;47.410;8.232;2023-05-19T02:09:17;97038.25;;;11.15;66.00
79465;BME280;68932;47.410;8.232;2023-05-19T02:11:55;97036.40;;;11.14;66.21
79465;BME280;68932;47.410;8.232;2023-05-19T02:14:32;97036.44;;;11.14;66.30
79465;BME280;68932;47.410;8.232;2023-05-19T02:17:01;97036.61;;;11.14;66.54
79465;BME280;68932;47.410;8.232;2023-05-19T02:19:33;97036.45;;;11.14;66.60
79465;BME280;68932;47.410;8.232;2023-05-19T02:22:02;97033.63;;;11.14;66.55
79465;BME280;68932;47.410;8.232;2023-05-19T02:24:30;97028.85;;;11.14;66.56
79465;BME280;68932;47.410;8.232;2023-05-19T02:26:59;97029.13;;;11.13;66.16
79465;BME280;68932;47.410;8.232;2023-05-19T02:29:27;97027.03;;;11.13;66.31
79465;BME280;68932;47.410;8.232;2023-05-19T02:31:56;97027.79;;;11.12;66.24
79465;BME280;68932;47.410;8.232;2023-05-19T02:34:24;97026.98;;;11.11;66.18
79465;BME280;68932;47.410;8.232;2023-05-19T02:36:52;97023.89;;;11.10;66.35
79465;BME280;68932;47.410;8.232;2023-05-19T02:39:20;97023.91;;;11.07;66.34
79465;BME280;68932;47.410;8.232;2023-05-19T02:41:49;97020.27;;;11.04;66.35
79465;BME280;68932;47.410;8.232;2023-05-19T02:44:17;97021.55;;;11.00;66.60
79465;BME280;68932;47.410;8.232;2023-05-19T02:46:45;97023.73;;;10.99;66.77
79465;BME280;68932;47.410;8.232;2023-05-19T02:49:13;97022.73;;;10.98;66.84
79465;BME280;68932;47.410;8.232;2023-05-19T02:51:42;97023.75;;;10.99;66.89
79465;BME280;68932;47.410;8.232;2023-05-19T02:54:10;97019.71;;;10.99;66.89
79465;BME280;68932;47.410;8.232;2023-05-19T02:56:38;97019.74;;;10.98;66.78
79465;BME280;68932;47.410;8.232;2023-05-19T02:59:06;97016.67;;;10.97;66.75
79465;BME280;68932;47.410;8.232;2023-05-19T03:01:35;97017.45;;;10.96;66.57
79465;BME280;68932;47.410;8.232;2023-05-19T03:04:03;97012.79;;;10.95;66.32
79465;BME280;68932;47.410;8.232;2023-05-19T03:06:31;97013.89;;;10.94;66.17
79465;BME280;68932;47.410;8.232;2023-05-19T03:09:00;97014.31;;;10.93;66.08
79465;BME280;68932;47.410;8.232;2023-05-19T03:11:28;97014.12;;;10.91;65.86
79465;BME280;68932;47.410;8.232;2023-05-19T03:13:57;97013.80;;;10.90;65.81
79465;BME280;68932;47.410;8.232;2023-05-19T03:16:25;97012.11;;;10.89;66.00
79465;BME280;68932;47.410;8.232;2023-05-19T03:18:54;97012.74;;;10.88;65.99
79465;BME280;68932;47.410;8.232;2023-05-19T03:21:23;97008.27;;;10.86;66.18
79465;BME280;68932;47.410;8.232;2023-05-19T03:23:51;97009.38;;;10.86;66.13
79465;BME280;68932;47.410;8.232;2023-05-19T03:26:19;97009.10;;;10.85;66.06
79465;BME280;68932;47.410;8.232;2023-05-19T03:28:47;97013.12;;;10.85;66.02
79465;BME280;68932;47.410;8.232;2023-05-19T03:31:16;97015.05;;;10.85;66.15
79465;BME280;68932;47.410;8.232;2023-05-19T03:33:44;97018.41;;;10.84;66.16
79465;BME280;68932;47.410;8.232;2023-05-19T03:36:13;97019.48;;;10.84;66.03
79465;BME280;68932;47.410;8.232;2023-05-19T03:38:41;97019.89;;;10.83;66.14
79465;BME280;68932;47.410;8.232;2023-05-19T03:41:09;97020.48;;;10.82;66.41
79465;BME280;68932;47.410;8.232;2023-05-19T03:43:38;97017.60;;;10.81;66.26
79465;BME280;68932;47.410;8.232;2023-05-19T03:46:06;97018.05;;;10.79;66.18
79465;BME280;68932;47.410;8.232;2023-05-19T03:48:34;97019.50;;;10.78;66.26
79465;BME280;68932;47.410;8.232;2023-05-19T03:51:03;97020.44;;;10.77;66.23
79465;BME280;68932;47.410;8.232;2023-05-19T03:53:31;97023.27;;;10.77;66.19
79465;BME280;68932;47.410;8.232;2023-05-19T03:55:59;97025.92;;;10.76;66.30
79465;BME280;68932;47.410;8.232;2023-05-19T03:58:28;97026.02;;;10.78;66.44
79465;BME280;68932;47.410;8.232;2023-05-19T04:00:56;97028.58;;;10.79;66.35
79465;BME280;68932;47.410;8.232;2023-05-19T04:03:25;97027.05;;;10.78;66.19
79465;BME280;68932;47.410;8.232;2023-05-19T04:05:53;97030.40;;;10.78;66.46
79465;BME280;68932;47.410;8.232;2023-05-19T04:08:21;97032.40;;;10.76;66.45
79465;BME280;68932;47.410;8.232;2023-05-19T04:10:49;97033.88;;;10.75;66.43
79465;BME280;68932;47.410;8.232;2023-05-19T04:13:18;97035.55;;;10.74;66.41
79465;BME280;68932;47.410;8.232;2023-05-19T04:15:46;97037.08;;;10.72;66.49
79465;BME280;68932;47.410;8.232;2023-05-19T04:18:14;97038.89;;;10.71;66.66
79465;BME280;68932;47.410;8.232;2023-05-19T04:20:42;97038.94;;;10.70;66.71
79465;BME280;68932;47.410;8.232;2023-05-19T04:23:11;97037.85;;;10.71;66.82
79465;BME280;68932;47.410;8.232;2023-05-19T04:25:39;97040.55;;;10.72;66.99
79465;BME280;68932;47.410;8.232;2023-05-19T04:28:08;97035.95;;;10.73;66.89
79465;BME280;68932;47.410;8.232;2023-05-19T04:30:36;97039.44;;;10.76;66.99
79465;BME280;68932;47.410;8.232;2023-05-19T04:33:04;97042.49;;;10.78;67.05
79465;BME280;68932;47.410;8.232;2023-05-19T04:35:33;97036.27;;;10.79;66.97
79465;BME280;68932;47.410;8.232;2023-05-19T04:38:01;97040.79;;;10.80;66.98
79465;BME280;68932;47.410;8.232;2023-05-19T04:40:30;97044.61;;;10.81;66.95
79465;BME280;68932;47.410;8.232;2023-05-19T04:42:58;97046.80;;;10.82;67.03
79465;BME280;68932;47.410;8.232;2023-05-19T04:45:26;97043.96;;;10.83;66.97
79465;BME280;68932;47.410;8.232;2023-05-19T04:47:54;97045.61;;;10.84;67.01
79465;BME280;68932;47.410;8.232;2023-05-19T04:50:23;97049.86;;;10.86;66.98
79465;BME280;68932;47.410;8.232;2023-05-19T04:52:51;97054.96;;;10.89;67.08
79465;BME280;68932;47.410;8.232;2023-05-19T04:55:19;97054.80;;;10.91;67.00
79465;BME280;68932;47.410;8.232;2023-05-19T04:57:47;97048.73;;;10.93;66.90
79465;BME280;68932;47.410;8.232;2023-05-19T05:00:17;97050.39;;;10.94;66.95
79465;BME280;68932;47.410;8.232;2023-05-19T05:02:46;97050.34;;;10.97;67.02
79465;BME280;68932;47.410;8.232;2023-05-19T05:05:14;97053.15;;;11.00;67.08
79465;BME280;68932;47.410;8.232;2023-05-19T05:07:43;97051.79;;;11.02;67.00
79465;BME280;68932;47.410;8.232;2023-05-19T05:10:12;97056.78;;;11.03;66.90
79465;BME280;68932;47.410;8.232;2023-05-19T05:12:42;97053.36;;;11.05;66.85
79465;BME280;68932;47.410;8.232;2023-05-19T05:15:12;97053.66;;;11.05;66.67
79465;BME280;68932;47.410;8.232;2023-05-19T05:17:42;97055.69;;;11.07;66.65
79465;BME280;68932;47.410;8.232;2023-05-19T05:20:14;97053.31;;;11.08;66.74
79465;BME280;68932;47.410;8.232;2023-05-19T05:22:43;97056.21;;;11.09;66.61
79465;BME280;68932;47.410;8.232;2023-05-19T05:25:15;97053.83;;;11.11;66.66
79465;BME280;68932;47.410;8.232;2023-05-19T05:27:43;97053.16;;;11.10;66.44
79465;BME280;68932;47.410;8.232;2023-05-19T05:30:13;97054.23;;;11.10;66.55
79465;BME280;68932;47.410;8.232;2023-05-19T05:32:41;97055.70;;;11.12;66.67
79465;BME280;68932;47.410;8.232;2023-05-19T05:35:10;97052.86;;;11.12;66.56
79465;BME280;68932;47.410;8.232;2023-05-19T05:37:39;97052.14;;;11.12;66.55
79465;BME280;68932;47.410;8.232;2023-05-19T05:40:09;97052.40;;;11.14;66.54
79465;BME280;68932;47.410;8.232;2023-05-19T05:42:37;97056.66;;;11.16;66.30
79465;BME280;68932;47.410;8.232;2023-05-19T05:45:07;97054.11;;;11.19;66.52
79465;BME280;68932;47.410;8.232;2023-05-19T05:47:37;97054.14;;;11.25;66.43
79465;BME280;68932;47.410;8.232;2023-05-19T05:50:07;97057.70;;;11.29;66.49
79465;BME280;68932;47.410;8.232;2023-05-19T05:52:37;97056.88;;;11.33;66.32
79465;BME280;68932;47.410;8.232;2023-05-19T05:55:09;97059.49;;;11.39;66.09
79465;BME280;68932;47.410;8.232;2023-05-19T05:57:37;97062.65;;;11.44;66.08
79465;BME280;68932;47.410;8.232;2023-05-19T06:00:08;97058.08;;;11.47;65.90
79465;BME280;68932;47.410;8.232;2023-05-19T06:02:36;97057.88;;;11.50;65.94
79465;BME280;68932;47.410;8.232;2023-05-19T06:05:06;97057.63;;;11.51;65.57
79465;BME280;68932;47.410;8.232;2023-05-19T06:07:34;97057.56;;;11.52;65.45
79465;BME280;68932;47.410;8.232;2023-05-19T06:10:03;97055.52;;;11.53;65.44
79465;BME280;68932;47.410;8.232;2023-05-19T06:12:32;97051.98;;;11.56;65.49
79465;BME280;68932;47.410;8.232;2023-05-19T06:15:00;97050.15;;;11.57;65.31
79465;BME280;68932;47.410;8.232;2023-05-19T06:17:29;97045.89;;;11.61;65.34
79465;BME280;68932;47.410;8.232;2023-05-19T06:19:57;97048.97;;;11.65;65.39
79465;BME280;68932;47.410;8.232;2023-05-19T06:22:25;97051.14;;;11.69;65.32
79465;BME280;68932;47.410;8.232;2023-05-19T06:24:54;97049.93;;;11.74;65.36
79465;BME280;68932;47.410;8.232;2023-05-19T06:27:22;97048.20;;;11.78;65.22
79465;BME280;68932;47.410;8.232;2023-05-19T06:29:50;97050.60;;;11.82;64.84
79465;BME280;68932;47.410;8.232;2023-05-19T06:32:19;97052.88;;;11.84;64.74
79465;BME280;68932;47.410;8.232;2023-05-19T06:34:48;97051.80;;;11.85;64.68
79465;BME280;68932;47.410;8.232;2023-05-19T06:37:16;97052.50;;;11.85;64.72
79465;BME280;68932;47.410;8.232;2023-05-19T06:39:44;97055.52;;;11.87;64.72
79465;BME280;68932;47.410;8.232;2023-05-19T06:42:12;97058.58;;;11.91;64.93
79465;BME280;68932;47.410;8.232;2023-05-19T06:44:41;97059.20;;;11.97;64.72
79465;BME280;68932;47.410;8.232;2023-05-19T06:47:09;97060.27;;;12.05;64.54
79465;BME280;68932;47.410;8.232;2023-05-19T06:49:37;97058.69;;;12.10;64.08
79465;BME280;68932;47.410;8.232;2023-05-19T06:52:06;97057.94;;;12.13;64.00
79465;BME280;68932;47.410;8.232;2023-05-19T06:54:34;97062.10;;;12.18;64.01
79465;BME280;68932;47.410;8.232;2023-05-19T06:57:03;97061.98;;;12.25;64.16
79465;BME280;68932;47.410;8.232;2023-05-19T06:59:32;97066.80;;;12.31;63.86
79465;BME280;68932;47.410;8.232;2023-05-19T07:02:00;97063.13;;;12.36;63.67
79465;BME280;68932;47.410;8.232;2023-05-19T07:04:28;97060.83;;;12.42;63.31
79465;BME280;68932;47.410;8.232;2023-05-19T07:06:56;97061.03;;;12.46;63.19
79465;BME280;68932;47.410;8.232;2023-05-19T07:09:25;97063.23;;;12.52;63.49
79465;BME280;68932;47.410;8.232;2023-05-19T07:11:53;97065.84;;;12.57;63.47
79465;BME280;68932;47.410;8.232;2023-05-19T07:14:21;97065.26;;;12.63;63.24
79465;BME280;68932;47.410;8.232;2023-05-19T07:16:49;97063.90;;;12.62;62.76
79465;BME280;68932;47.410;8.232;2023-05-19T07:19:18;97058.94;;;12.63;62.95
79465;BME280;68932;47.410;8.232;2023-05-19T07:21:46;97055.05;;;12.63;62.58
79465;BME280;68932;47.410;8.232;2023-05-19T07:24:14;97057.20;;;12.63;62.48
79465;BME280;68932;47.410;8.232;2023-05-19T07:26:43;97056.06;;;12.61;62.35
79465;BME280;68932;47.410;8.232;2023-05-19T07:29:11;97059.15;;;12.62;62.62
79465;BME280;68932;47.410;8.232;2023-05-19T07:31:39;97056.70;;;12.64;62.42
79465;BME280;68932;47.410;8.232;2023-05-19T07:34:07;97054.73;;;12.67;62.51
79465;BME280;68932;47.410;8.232;2023-05-19T07:36:35;97056.35;;;12.69;62.37
79465;BME280;68932;47.410;8.232;2023-05-19T07:39:04;97061.40;;;12.72;62.32
79465;BME280;68932;47.410;8.232;2023-05-19T07:41:32;97056.77;;;12.78;62.30
79465;BME280;68932;47.410;8.232;2023-05-19T07:44:00;97060.31;;;12.85;62.38
79465;BME280;68932;47.410;8.232;2023-05-19T07:46:29;97056.27;;;12.92;62.19
79465;BME280;68932;47.410;8.232;2023-05-19T07:48:57;97056.63;;;12.99;62.01
79465;BME280;68932;47.410;8.232;2023-05-19T07:51:25;97058.95;;;13.08;61.96
79465;BME280;68932;47.410;8.232;2023-05-19T07:53:53;97057.92;;;13.17;61.64
79465;BME280;68932;47.410;8.232;2023-05-19T07:56:22;97055.88;;;13.23;61.58
79465;BME280;68932;47.410;8.232;2023-05-19T07:58:50;97059.16;;;13.27;61.08
79465;BME280;68932;47.410;8.232;2023-05-19T08:01:18;97058.16;;;13.28;60.99
79465;BME280;68932;47.410;8.232;2023-05-19T08:03:46;97060.20;;;13.32;60.94
79465;BME280;68932;47.410;8.232;2023-05-19T08:06:15;97056.36;;;13.38;61.04
79465;BME280;68932;47.410;8.232;2023-05-19T08:08:43;97059.45;;;13.42;60.52
79465;BME280;68932;47.410;8.232;2023-05-19T08:11:11;97057.54;;;13.39;60.38
79465;BME280;68932;47.410;8.232;2023-05-19T08:13:40;97056.27;;;13.40;60.60
79465;BME280;68932;47.410;8.232;2023-05-19T08:16:08;97054.41;;;13.48;60.83
79465;BME280;68932;47.410;8.232;2023-05-19T08:18:36;97046.08;;;13.60;60.84
79465;BME280;68932;47.410;8.232;2023-05-19T08:21:05;97041.66;;;13.70;60.58
79465;BME280;68932;47.410;8.232;2023-05-19T08:23:33;97040.48;;;13.78;60.18
79465;BME280;68932;47.410;8.232;2023-05-19T08:26:02;97036.86;;;13.81;59.91
79465;BME280;68932;47.410;8.232;2023-05-19T08:28:30;97040.15;;;13.87;60.03
79465;BME280;68932;47.410;8.232;2023-05-19T08:30:58;97040.61;;;13.92;59.79
79465;BME280;68932;47.410;8.232;2023-05-19T08:33:26;97040.42;;;13.96;59.64
79465;BME280;68932;47.410;8.232;2023-05-19T08:35:56;97036.20;;;14.01;59.24
79465;BME280;68932;47.410;8.232;2023-05-19T08:38:24;97033.88;;;14.08;58.90
79465;BME280;68932;47.410;8.232;2023-05-19T08:40:53;97034.33;;;14.11;59.09
79465;BME280;68932;47.410;8.232;2023-05-19T08:43:22;97034.91;;;14.17;59.21
79465;BME280;68932;47.410;8.232;2023-05-19T08:45:51;97029.38;;;14.27;59.29
79465;BME280;68932;47.410;8.232;2023-05-19T08:48:20;97025.95;;;14.37;59.18
79465;BME280;68932;47.410;8.232;2023-05-19T08:50:54;97030.13;;;14.49;58.90
79465;BME280;68932;47.410;8.232;2023-05-19T08:53:29;97023.62;;;14.55;58.62
79465;BME280;68932;47.410;8.232;2023-05-19T08:56:03;97029.20;;;14.61;58.50
79465;BME280;68932;47.410;8.232;2023-05-19T08:58:32;97029.25;;;14.64;58.08
79465;BME280;68932;47.410;8.232;2023-05-19T09:01:01;97030.14;;;14.66;58.13
79465;BME280;68932;47.410;8.232;2023-05-19T09:03:30;97028.28;;;14.69;57.92
79465;BME280;68932;47.410;8.232;2023-05-19T09:05:59;97030.41;;;14.65;57.23
79465;BME280;68932;47.410;8.232;2023-05-19T09:08:28;97034.06;;;14.57;57.56
79465;BME280;68932;47.410;8.232;2023-05-19T09:10:56;97032.25;;;14.48;57.46
79465;BME280;68932;47.410;8.232;2023-05-19T09:13:25;97034.00;;;14.40;57.81
79465;BME280;68932;47.410;8.232;2023-05-19T09:15:53;97036.87;;;14.32;57.87
79465;BME280;68932;47.410;8.232;2023-05-19T09:18:24;97037.38;;;14.24;57.70
79465;BME280;68932;47.410;8.232;2023-05-19T09:20:57;97037.00;;;14.13;58.00
79465;BME280;68932;47.410;8.232;2023-05-19T09:23:27;97033.48;;;14.05;58.60
79465;BME280;68932;47.410;8.232;2023-05-19T09:25:56;97031.92;;;13.97;59.05
79465;BME280;68932;47.410;8.232;2023-05-19T09:28:26;97033.73;;;13.96;59.25
79465;BME280;68932;47.410;8.232;2023-05-19T09:31:01;97034.21;;;14.06;59.51
79465;BME280;68932;47.410;8.232;2023-05-19T09:33:33;97035.20;;;14.18;59.62
79465;BME280;68932;47.410;8.232;2023-05-19T09:36:02;97032.85;;;14.28;59.41
79465;BME280;68932;47.410;8.232;2023-05-19T09:38:31;97031.98;;;14.34;59.36
79465;BME280;68932;47.410;8.232;2023-05-19T09:41:00;97031.02;;;14.37;59.10
79465;BME280;68932;47.410;8.232;2023-05-19T09:43:29;97033.89;;;14.36;58.62
79465;BME280;68932;47.410;8.232;2023-05-19T09:46:01;97034.85;;;14.29;58.20
79465;BME280;68932;47.410;8.232;2023-05-19T09:48:30;97039.49;;;14.22;58.74
79465;BME280;68932;47.410;8.232;2023-05-19T09:51:00;97040.41;;;14.19;58.93
79465;BME280;68932;47.410;8.232;2023-05-19T09:53:29;97039.38;;;14.21;59.08
79465;BME280;68932;47.410;8.232;2023-05-19T09:55:59;97038.05;;;14.23;59.24
79465;BME280;68932;47.410;8.232;2023-05-19T09:58:31;97034.33;;;14.27;59.26
79465;BME280;68932;47.410;8.232;2023-05-19T10:01:00;97034.79;;;14.32;58.83
79465;BME280;68932;47.410;8.232;2023-05-19T10:03:30;97026.22;;;14.38;58.83
79465;BME280;68932;47.410;8.232;2023-05-19T10:06:01;97027.14;;;14.44;59.10
79465;BME280;68932;47.410;8.232;2023-05-19T10:08:31;97028.85;;;14.51;59.19
79465;BME280;68932;47.410;8.232;2023-05-19T10:11:00;97029.75;;;14.58;58.15
79465;BME280;68932;47.410;8.232;2023-05-19T10:13:29;97031.11;;;14.65;57.89
79465;BME280;68932;47.410;8.232;2023-05-19T10:15:57;97030.51;;;14.77;58.41
79465;BME280;68932;47.410;8.232;2023-05-19T10:18:26;97025.77;;;14.92;58.65
79465;BME280;68932;47.410;8.232;2023-05-19T10:20:55;97024.45;;;15.08;58.17
79465;BME280;68932;47.410;8.232;2023-05-19T10:23:24;97022.90;;;15.22;58.15
79465;BME280;68932;47.410;8.232;2023-05-19T10:25:55;97018.14;;;15.39;57.98
79465;BME280;68932;47.410;8.232;2023-05-19T10:28:25;97016.54;;;15.51;58.00
79465;BME280;68932;47.410;8.232;2023-05-19T10:30:59;97020.02;;;15.60;57.37
79465;BME280;68932;47.410;8.232;2023-05-19T10:33:33;97023.66;;;15.63;56.35
79465;BME280;68932;47.410;8.232;2023-05-19T10:36:08;97022.79;;;15.61;56.05
79465;BME280;68932;47.410;8.232;2023-05-19T10:38:45;97023.84;;;15.55;55.68
79465;BME280;68932;47.410;8.232;2023-05-19T10:41:23;97022.95;;;15.40;55.41
79465;BME280;68932;47.410;8.232;2023-05-19T10:44:02;97018.08;;;15.29;55.88
79465;BME280;68932;47.410;8.232;2023-05-19T10:46:36;97015.70;;;15.24;55.98
79465;BME280;68932;47.410;8.232;2023-05-19T10:49:07;97017.76;;;15.25;56.71
79465;BME280;68932;47.410;8.232;2023-05-19T10:51:36;97021.18;;;15.26;56.32
79465;BME280;68932;47.410;8.232;2023-05-19T10:54:08;97016.59;;;15.24;56.47
79465;BME280;68932;47.410;8.232;2023-05-19T10:56:39;97015.33;;;15.26;56.44
79465;BME280;68932;47.410;8.232;2023-05-19T10:59:31;97016.10;;;15.40;57.23
79465;BME280;68932;47.410;8.232;2023-05-19T11:02:03;97015.17;;;15.55;57.11
79465;BME280;68932;47.410;8.232;2023-05-19T11:04:46;97012.15;;;15.68;56.35
79465;BME280;68932;47.410;8.232;2023-05-19T11:07:18;97006.80;;;15.87;55.85
79465;BME280;68932;47.410;8.232;2023-05-19T11:09:50;97010.60;;;16.06;56.74
79465;BME280;68932;47.410;8.232;2023-05-19T11:12:22;97004.73;;;16.25;56.68
79465;BME280;68932;47.410;8.232;2023-05-19T11:14:52;97002.67;;;16.44;55.72
79465;BME280;68932;47.410;8.232;2023-05-19T11:17:23;96995.34;;;16.63;55.68
79465;BME280;68932;47.410;8.232;2023-05-19T11:19:55;96994.98;;;16.83;55.64
79465;BME280;68932;47.410;8.232;2023-05-19T11:22:25;96989.65;;;16.93;54.34
79465;BME280;68932;47.410;8.232;2023-05-19T11:24:54;96987.33;;;16.93;53.72
79465;BME280;68932;47.410;8.232;2023-05-19T11:27:26;96987.02;;;16.98;54.12
79465;BME280;68932;47.410;8.232;2023-05-19T11:29:55;96990.02;;;17.10;54.07
79465;BME280;68932;47.410;8.232;2023-05-19T11:32:27;96989.59;;;17.22;54.37
79465;BME280;68932;47.410;8.232;2023-05-19T11:34:55;96984.13;;;17.32;53.14
79465;BME280;68932;47.410;8.232;2023-05-19T11:37:24;96984.23;;;17.42;53.38
79465;BME280;68932;47.410;8.232;2023-05-19T11:39:53;96983.85;;;17.49;53.70
79465;BME280;68932;47.410;8.232;2023-05-19T11:42:21;96984.50;;;17.62;53.66
79465;BME280;68932;47.410;8.232;2023-05-19T11:44:53;96983.73;;;17.72;53.37
79465;BME280;68932;47.410;8.232;2023-05-19T11:47:22;96984.44;;;17.79;52.73
79465;BME280;68932;47.410;8.232;2023-05-19T11:49:50;96984.67;;;17.81;52.18
79465;BME280;68932;47.410;8.232;2023-05-19T11:52:21;96981.02;;;17.82;52.12
79465;BME280;68932;47.410;8.232;2023-05-19T11:54:50;96985.21;;;17.85;51.78
79465;BME280;68932;47.410;8.232;2023-05-19T11:57:19;96982.30;;;17.79;51.39
79465;BME280;68932;47.410;8.232;2023-05-19T11:59:47;96985.05;;;17.86;51.60
79465;BME280;68932;47.410;8.232;2023-05-19T12:02:18;96982.88;;;17.98;51.49
79465;BME280;68932;47.410;8.232;2023-05-19T12:04:47;96982.56;;;18.05;51.53
79465;BME280;68932;47.410;8.232;2023-05-19T12:07:17;96981.15;;;18.03;50.92
79465;BME280;68932;47.410;8.232;2023-05-19T12:09:46;96978.09;;;18.00;50.92
79465;BME280;68932;47.410;8.232;2023-05-19T12:12:16;96974.06;;;18.03;51.16
79465;BME280;68932;47.410;8.232;2023-05-19T12:14:47;96970.10;;;18.04;50.95
79465;BME280;68932;47.410;8.232;2023-05-19T12:17:17;96968.65;;;18.11;51.80
79465;BME280;68932;47.410;8.232;2023-05-19T12:19:46;96970.32;;;18.23;51.68
79465;BME280;68932;47.410;8.232;2023-05-19T12:22:15;96968.63;;;18.35;51.08
79465;BME280;68932;47.410;8.232;2023-05-19T12:24:45;96968.61;;;18.48;51.37
79465;BME280;68932;47.410;8.232;2023-05-19T12:27:22;96962.44;;;18.57;50.71
79465;BME280;68932;47.410;8.232;2023-05-19T12:29:51;96963.65;;;18.64;50.32
79465;BME280;68932;47.410;8.232;2023-05-19T12:32:23;96958.48;;;18.73;49.91
79465;BME280;68932;47.410;8.232;2023-05-19T12:34:52;96955.91;;;18.82;50.34
79465;BME280;68932;47.410;8.232;2023-05-19T12:37:23;96951.31;;;18.87;49.90
79465;BME280;68932;47.410;8.232;2023-05-19T12:39:53;96946.25;;;18.88;49.66
79465;BME280;68932;47.410;8.232;2023-05-19T12:42:24;96944.88;;;18.91;49.27
79465;BME280;68932;47.410;8.232;2023-05-19T12:44:54;96943.53;;;18.90;49.52
79465;BME280;68932;47.410;8.232;2023-05-19T12:47:27;96941.82;;;18.84;49.20
79465;BME280;68932;47.410;8.232;2023-05-19T12:49:59;96942.21;;;18.81;49.46
79465;BME280;68932;47.410;8.232;2023-05-19T12:52:30;96939.78;;;18.74;49.49
79465;BME280;68932;47.410;8.232;2023-05-19T12:55:03;96932.64;;;18.67;49.56
79465;BME280;68932;47.410;8.232;2023-05-19T12:57:34;96935.34;;;18.56;49.66
79465;BME280;68932;47.410;8.232;2023-05-19T13:00:06;96932.68;;;18.42;49.92
79465;BME280;68932;47.410;8.232;2023-05-19T13:05:21;96938.81;;;18.39;50.73
79465;BME280;68932;47.410;8.232;2023-05-19T13:07:56;96933.11;;;18.35;50.57
79465;BME280;68932;47.410;8.232;2023-05-19T13:10:25;96935.29;;;18.29;50.55
79465;BME280;68932;47.410;8.232;2023-05-19T13:12:54;96931.32;;;18.23;50.70
79465;BME280;68932;47.410;8.232;2023-05-19T13:15:25;96927.05;;;18.16;51.07
79465;BME280;68932;47.410;8.232;2023-05-19T13:17:54;96930.21;;;18.11;51.13